sensor_id;sensor_type;location;lat;lon;timestamp;pressure;altitude;pressure_sealevel;temperature;humidity
55733;BME280;41637;52.364;9.910;2022-10-16T00:00:54;100356.50;;;13.79;77.56
55733;BME280;41637;52.364;9.910;2022-10-16T00:03:21;100357.64;;;13.72;77.61
55733;BME280;41637;52.364;9.910;2022-10-16T00:05:58;100357.64;;;13.67;77.76
55733;BME280;41637;52.364;9.910;2022-10-16T00:08:26;100352.33;;;13.61;77.98
55733;BME280;41637;52.364;9.910;2022-10-16T00:10:52;100353.12;;;13.56;78.17
55733;BME280;41637;52.364;9.910;2022-10-16T00:13:19;100361.34;;;13.51;78.35
55733;BME280;41637;52.364;9.910;2022-10-16T00:15:46;100369.66;;;13.46;78.81
55733;BME280;41637;52.364;9.910;2022-10-16T00:18:13;100365.36;;;13.44;78.89
55733;BME280;41637;52.364;9.910;2022-10-16T00:20:40;100360.14;;;13.41;79.31
55733;BME280;41637;52.364;9.910;2022-10-16T00:23:07;100360.58;;;13.38;79.41
55733;BME280;41637;52.364;9.910;2022-10-16T00:25:34;100367.39;;;13.38;79.66
55733;BME280;41637;52.364;9.910;2022-10-16T00:28:00;100372.87;;;13.38;79.31
55733;BME280;41637;52.364;9.910;2022-10-16T00:30:27;100375.70;;;13.38;79.44
55733;BME280;41637;52.364;9.910;2022-10-16T00:32:54;100378.83;;;13.39;79.59
55733;BME280;41637;52.364;9.910;2022-10-16T00:35:21;100384.96;;;13.37;79.45
55733;BME280;41637;52.364;9.910;2022-10-16T00:37:47;100387.30;;;13.34;79.72
55733;BME280;41637;52.364;9.910;2022-10-16T00:40:14;100382.27;;;13.30;79.99
55733;BME280;41637;52.364;9.910;2022-10-16T00:42:43;100386.20;;;13.29;80.34
55733;BME280;41637;52.364;9.910;2022-10-16T00:45:10;100389.46;;;13.28;80.36
55733;BME280;41637;52.364;9.910;2022-10-16T00:47:39;100392.18;;;13.29;80.50
55733;BME280;41637;52.364;9.910;2022-10-16T00:50:28;100395.71;;;13.29;80.75
55733;BME280;41637;52.364;9.910;2022-10-16T00:52:57;100395.84;;;13.30;80.87
55733;BME280;41637;52.364;9.910;2022-10-16T00:55:25;100391.25;;;13.30;80.95
55733;BME280;41637;52.364;9.910;2022-10-16T00:57:52;100386.13;;;13.29;81.12
55733;BME280;41637;52.364;9.910;2022-10-16T01:00:22;100394.16;;;13.29;81.44
55733;BME280;41637;52.364;9.910;2022-10-16T01:02:58;100394.01;;;13.29;81.50
55733;BME280;41637;52.364;9.910;2022-10-16T01:08:40;100396.75;;;13.27;81.92
55733;BME280;41637;52.364;9.910;2022-10-16T01:14:57;100397.27;;;13.23;82.93
55733;BME280;41637;52.364;9.910;2022-10-16T01:17:06;100399.15;;;13.21;83.15
55733;BME280;41637;52.364;9.910;2022-10-16T01:20:10;100401.86;;;13.15;83.10
55733;BME280;41637;52.364;9.910;2022-10-16T01:22:43;100397.71;;;13.09;83.51
55733;BME280;41637;52.364;9.910;2022-10-16T01:25:25;100397.73;;;13.05;83.80
55733;BME280;41637;52.364;9.910;2022-10-16T01:27:52;100398.41;;;13.03;84.09
55733;BME280;41637;52.364;9.910;2022-10-16T01:30:29;100400.58;;;13.01;84.14
55733;BME280;41637;52.364;9.910;2022-10-16T01:33:02;100407.54;;;12.99;84.35
55733;BME280;41637;52.364;9.910;2022-10-16T01:35:34;100410.96;;;12.97;84.57
55733;BME280;41637;52.364;9.910;2022-10-16T01:38:23;100418.66;;;12.96;84.63
55733;BME280;41637;52.364;9.910;2022-10-16T01:40:59;100418.23;;;12.91;84.70
55733;BME280;41637;52.364;9.910;2022-10-16T01:43:33;100422.27;;;12.87;85.09
55733;BME280;41637;52.364;9.910;2022-10-16T01:46:02;100424.81;;;12.84;85.48
55733;BME280;41637;52.364;9.910;2022-10-16T01:48:29;100426.48;;;12.80;85.70
55733;BME280;41637;52.364;9.910;2022-10-16T01:51:04;100431.38;;;12.76;85.84
55733;BME280;41637;52.364;9.910;2022-10-16T01:53:32;100433.03;;;12.74;87.01
55733;BME280;41637;52.364;9.910;2022-10-16T01:56:00;100429.50;;;12.72;87.34
55733;BME280;41637;52.364;9.910;2022-10-16T01:58:28;100426.66;;;12.74;88.08
55733;BME280;41637;52.364;9.910;2022-10-16T02:01:01;100423.11;;;12.77;88.61
55733;BME280;41637;52.364;9.910;2022-10-16T02:03:28;100424.71;;;12.79;89.04
55733;BME280;41637;52.364;9.910;2022-10-16T02:05:56;100425.19;;;12.82;89.37
55733;BME280;41637;52.364;9.910;2022-10-16T02:08:27;100424.91;;;12.86;89.75
55733;BME280;41637;52.364;9.910;2022-10-16T02:10:55;100425.52;;;12.90;89.94
55733;BME280;41637;52.364;9.910;2022-10-16T02:13:30;100429.75;;;12.92;90.23
55733;BME280;41637;52.364;9.910;2022-10-16T02:15:58;100434.27;;;12.96;90.69
55733;BME280;41637;52.364;9.910;2022-10-16T02:18:26;100436.57;;;12.98;90.92
55733;BME280;41637;52.364;9.910;2022-10-16T02:20:59;100438.15;;;13.01;90.82
55733;BME280;41637;52.364;9.910;2022-10-16T02:26:13;100433.62;;;13.05;90.55
55733;BME280;41637;52.364;9.910;2022-10-16T02:28:48;100440.02;;;13.06;90.79
55733;BME280;41637;52.364;9.910;2022-10-16T02:31:22;100442.73;;;13.08;91.06
55733;BME280;41637;52.364;9.910;2022-10-16T02:33:52;100444.15;;;13.07;91.28
55733;BME280;41637;52.364;9.910;2022-10-16T02:36:21;100449.66;;;13.09;91.38
55733;BME280;41637;52.364;9.910;2022-10-16T02:38:48;100450.92;;;13.09;91.74
55733;BME280;41637;52.364;9.910;2022-10-16T02:41:14;100452.65;;;13.09;92.32
55733;BME280;41637;52.364;9.910;2022-10-16T02:43:41;100449.01;;;13.10;92.19
55733;BME280;41637;52.364;9.910;2022-10-16T02:46:07;100442.55;;;13.11;92.58
55733;BME280;41637;52.364;9.910;2022-10-16T02:48:34;100432.14;;;13.13;92.58
55733;BME280;41637;52.364;9.910;2022-10-16T02:51:01;100432.95;;;13.13;92.55
55733;BME280;41637;52.364;9.910;2022-10-16T02:53:27;100436.09;;;13.15;92.70
55733;BME280;41637;52.364;9.910;2022-10-16T02:55:53;100437.45;;;13.16;92.64
55733;BME280;41637;52.364;9.910;2022-10-16T02:58:20;100441.75;;;13.17;92.80
55733;BME280;41637;52.364;9.910;2022-10-16T03:00:46;100441.50;;;13.17;92.52
55733;BME280;41637;52.364;9.910;2022-10-16T03:03:13;100436.91;;;13.17;92.47
55733;BME280;41637;52.364;9.910;2022-10-16T03:05:39;100441.69;;;13.14;92.42
55733;BME280;41637;52.364;9.910;2022-10-16T03:08:05;100437.63;;;13.13;92.57
55733;BME280;41637;52.364;9.910;2022-10-16T03:10:32;100441.52;;;13.12;92.77
55733;BME280;41637;52.364;9.910;2022-10-16T03:12:58;100443.00;;;13.11;92.67
55733;BME280;41637;52.364;9.910;2022-10-16T03:15:25;100433.96;;;13.11;92.56
55733;BME280;41637;52.364;9.910;2022-10-16T03:17:52;100433.90;;;13.11;92.48
55733;BME280;41637;52.364;9.910;2022-10-16T03:20:18;100439.46;;;13.11;92.30
55733;BME280;41637;52.364;9.910;2022-10-16T03:22:44;100444.83;;;13.10;92.36
55733;BME280;41637;52.364;9.910;2022-10-16T03:25:11;100452.19;;;13.07;92.49
55733;BME280;41637;52.364;9.910;2022-10-16T03:27:37;100455.58;;;13.05;92.64
55733;BME280;41637;52.364;9.910;2022-10-16T03:30:04;100454.42;;;13.03;92.70
55733;BME280;41637;52.364;9.910;2022-10-16T03:32:30;100455.80;;;13.02;92.76
55733;BME280;41637;52.364;9.910;2022-10-16T03:34:57;100449.77;;;13.02;92.63
55733;BME280;41637;52.364;9.910;2022-10-16T03:37:24;100444.04;;;13.01;92.34
55733;BME280;41637;52.364;9.910;2022-10-16T03:39:51;100442.23;;;13.00;92.29
55733;BME280;41637;52.364;9.910;2022-10-16T03:42:17;100446.11;;;12.98;92.32
55733;BME280;41637;52.364;9.910;2022-10-16T03:44:44;100443.20;;;12.95;91.90
55733;BME280;41637;52.364;9.910;2022-10-16T03:47:10;100444.65;;;12.94;92.15
55733;BME280;41637;52.364;9.910;2022-10-16T03:49:37;100450.71;;;12.92;91.77
55733;BME280;41637;52.364;9.910;2022-10-16T03:52:03;100449.08;;;12.91;91.95
55733;BME280;41637;52.364;9.910;2022-10-16T03:54:29;100442.50;;;12.88;91.87
55733;BME280;41637;52.364;9.910;2022-10-16T03:56:56;100447.36;;;12.85;91.80
55733;BME280;41637;52.364;9.910;2022-10-16T03:59:22;100444.84;;;12.80;91.76
55733;BME280;41637;52.364;9.910;2022-10-16T04:01:49;100446.64;;;12.75;91.94
55733;BME280;41637;52.364;9.910;2022-10-16T04:04:15;100445.59;;;12.71;91.77
55733;BME280;41637;52.364;9.910;2022-10-16T04:06:41;100450.98;;;12.68;91.99
55733;BME280;41637;52.364;9.910;2022-10-16T04:09:08;100449.30;;;12.63;92.34
55733;BME280;41637;52.364;9.910;2022-10-16T04:11:34;100454.27;;;12.60;92.61
55733;BME280;41637;52.364;9.910;2022-10-16T04:14:01;100449.28;;;12.59;92.75
55733;BME280;41637;52.364;9.910;2022-10-16T04:16:27;100450.97;;;12.55;92.90
55733;BME280;41637;52.364;9.910;2022-10-16T04:18:57;100455.59;;;12.54;93.51
55733;BME280;41637;52.364;9.910;2022-10-16T04:21:23;100467.30;;;12.54;94.08
55733;BME280;41637;52.364;9.910;2022-10-16T04:23:50;100469.40;;;12.55;94.25
55733;BME280;41637;52.364;9.910;2022-10-16T04:26:16;100470.14;;;12.57;94.12
55733;BME280;41637;52.364;9.910;2022-10-16T04:28:42;100474.48;;;12.58;94.59
55733;BME280;41637;52.364;9.910;2022-10-16T04:31:09;100477.93;;;12.62;94.48
55733;BME280;41637;52.364;9.910;2022-10-16T04:33:35;100472.55;;;12.66;94.18
55733;BME280;41637;52.364;9.910;2022-10-16T04:36:02;100477.63;;;12.68;94.06
55733;BME280;41637;52.364;9.910;2022-10-16T04:38:30;100476.56;;;12.68;94.25
55733;BME280;41637;52.364;9.910;2022-10-16T04:40:56;100478.25;;;12.67;94.01
55733;BME280;41637;52.364;9.910;2022-10-16T04:43:23;100485.20;;;12.67;93.93
55733;BME280;41637;52.364;9.910;2022-10-16T04:45:49;100484.41;;;12.66;94.05
55733;BME280;41637;52.364;9.910;2022-10-16T04:48:17;100475.80;;;12.62;93.55
55733;BME280;41637;52.364;9.910;2022-10-16T04:50:44;100472.90;;;12.59;93.71
55733;BME280;41637;52.364;9.910;2022-10-16T04:53:10;100479.84;;;12.56;93.83
55733;BME280;41637;52.364;9.910;2022-10-16T04:55:37;100479.62;;;12.54;93.96
55733;BME280;41637;52.364;9.910;2022-10-16T04:58:04;100473.79;;;12.53;93.95
55733;BME280;41637;52.364;9.910;2022-10-16T05:00:31;100479.67;;;12.51;94.16
55733;BME280;41637;52.364;9.910;2022-10-16T05:02:57;100482.66;;;12.50;94.44
55733;BME280;41637;52.364;9.910;2022-10-16T05:05:26;100481.96;;;12.50;94.43
55733;BME280;41637;52.364;9.910;2022-10-16T05:07:52;100484.14;;;12.50;94.59
55733;BME280;41637;52.364;9.910;2022-10-16T05:10:19;100488.84;;;12.50;94.66
55733;BME280;41637;52.364;9.910;2022-10-16T05:12:46;100494.02;;;12.52;94.94
55733;BME280;41637;52.364;9.910;2022-10-16T05:15:12;100498.49;;;12.54;94.89
55733;BME280;41637;52.364;9.910;2022-10-16T05:17:39;100506.24;;;12.56;94.77
55733;BME280;41637;52.364;9.910;2022-10-16T05:20:10;100503.38;;;12.57;94.94
55733;BME280;41637;52.364;9.910;2022-10-16T05:22:37;100497.17;;;12.59;94.78
55733;BME280;41637;52.364;9.910;2022-10-16T05:25:04;100501.00;;;12.61;94.90
55733;BME280;41637;52.364;9.910;2022-10-16T05:27:30;100505.69;;;12.63;95.40
55733;BME280;41637;52.364;9.910;2022-10-16T05:29:57;100504.75;;;12.65;95.28
55733;BME280;41637;52.364;9.910;2022-10-16T05:32:23;100510.98;;;12.63;95.38
55733;BME280;41637;52.364;9.910;2022-10-16T05:34:50;100517.84;;;12.62;95.25
55733;BME280;41637;52.364;9.910;2022-10-16T05:37:16;100520.42;;;12.63;95.46
55733;BME280;41637;52.364;9.910;2022-10-16T05:39:43;100527.19;;;12.64;95.91
55733;BME280;41637;52.364;9.910;2022-10-16T05:42:09;100529.66;;;12.67;96.28
55733;BME280;41637;52.364;9.910;2022-10-16T05:44:35;100522.80;;;12.71;96.20
55733;BME280;41637;52.364;9.910;2022-10-16T05:47:02;100524.11;;;12.73;96.08
55733;BME280;41637;52.364;9.910;2022-10-16T05:49:28;100526.06;;;12.78;96.07
55733;BME280;41637;52.364;9.910;2022-10-16T05:51:55;100522.77;;;12.80;96.26
55733;BME280;41637;52.364;9.910;2022-10-16T05:54:21;100519.02;;;12.83;96.16
55733;BME280;41637;52.364;9.910;2022-10-16T05:56:47;100518.90;;;12.86;96.01
55733;BME280;41637;52.364;9.910;2022-10-16T05:59:14;100526.27;;;12.89;96.22
55733;BME280;41637;52.364;9.910;2022-10-16T06:01:40;100523.65;;;12.91;96.20
55733;BME280;41637;52.364;9.910;2022-10-16T06:04:08;100523.96;;;12.94;95.84
55733;BME280;41637;52.364;9.910;2022-10-16T06:06:35;100533.85;;;12.97;95.93
55733;BME280;41637;52.364;9.910;2022-10-16T06:09:03;100545.88;;;13.00;95.79
55733;BME280;41637;52.364;9.910;2022-10-16T06:11:31;100538.64;;;13.04;95.72
55733;BME280;41637;52.364;9.910;2022-10-16T06:13:59;100543.65;;;13.09;95.38
55733;BME280;41637;52.364;9.910;2022-10-16T06:16:28;100543.26;;;13.13;95.08
55733;BME280;41637;52.364;9.910;2022-10-16T06:18:55;100543.40;;;13.17;95.06
55733;BME280;41637;52.364;9.910;2022-10-16T06:21:27;100543.27;;;13.21;94.82
55733;BME280;41637;52.364;9.910;2022-10-16T06:23:54;100539.73;;;13.25;94.70
55733;BME280;41637;52.364;9.910;2022-10-16T06:26:24;100544.41;;;13.27;94.54
55733;BME280;41637;52.364;9.910;2022-10-16T06:28:51;100556.67;;;13.30;94.45
55733;BME280;41637;52.364;9.910;2022-10-16T06:31:17;100565.55;;;13.35;94.38
55733;BME280;41637;52.364;9.910;2022-10-16T06:33:44;100562.09;;;13.39;94.05
55733;BME280;41637;52.364;9.910;2022-10-16T06:36:15;100569.73;;;13.43;93.65
55733;BME280;41637;52.364;9.910;2022-10-16T06:38:42;100579.85;;;13.48;93.68
55733;BME280;41637;52.364;9.910;2022-10-16T06:41:12;100571.48;;;13.54;93.36
55733;BME280;41637;52.364;9.910;2022-10-16T06:43:39;100568.75;;;13.58;93.15
55733;BME280;41637;52.364;9.910;2022-10-16T06:46:07;100577.45;;;13.68;93.26
55733;BME280;41637;52.364;9.910;2022-10-16T06:48:37;100576.23;;;13.81;92.69
55733;BME280;41637;52.364;9.910;2022-10-16T06:51:13;100584.36;;;13.87;92.18
55733;BME280;41637;52.364;9.910;2022-10-16T06:53:42;100581.52;;;13.92;92.07
55733;BME280;41637;52.364;9.910;2022-10-16T06:56:28;100581.83;;;13.99;91.88
55733;BME280;41637;52.364;9.910;2022-10-16T06:58:56;100579.27;;;14.05;91.63
55733;BME280;41637;52.364;9.910;2022-10-16T07:01:23;100590.42;;;14.14;91.53
55733;BME280;41637;52.364;9.910;2022-10-16T07:03:50;100590.80;;;14.23;91.19
55733;BME280;41637;52.364;9.910;2022-10-16T07:06:19;100592.27;;;14.33;90.61
55733;BME280;41637;52.364;9.910;2022-10-16T07:08:46;100581.41;;;14.41;90.22
55733;BME280;41637;52.364;9.910;2022-10-16T07:11:16;100582.08;;;14.50;89.85
55733;BME280;41637;52.364;9.910;2022-10-16T07:13:45;100587.34;;;14.60;89.64
55733;BME280;41637;52.364;9.910;2022-10-16T07:16:22;100591.98;;;14.71;89.05
55733;BME280;41637;52.364;9.910;2022-10-16T07:18:49;100595.52;;;14.79;88.88
55733;BME280;41637;52.364;9.910;2022-10-16T07:21:21;100607.68;;;14.86;88.24
55733;BME280;41637;52.364;9.910;2022-10-16T07:23:53;100615.53;;;14.93;88.08
55733;BME280;41637;52.364;9.910;2022-10-16T07:26:21;100615.73;;;14.98;87.81
55733;BME280;41637;52.364;9.910;2022-10-16T07:28:48;100618.90;;;15.03;87.56
55733;BME280;41637;52.364;9.910;2022-10-16T07:31:16;100621.36;;;15.05;87.02
55733;BME280;41637;52.364;9.910;2022-10-16T07:33:44;100622.84;;;15.08;87.11
55733;BME280;41637;52.364;9.910;2022-10-16T07:36:12;100623.75;;;15.10;86.68
55733;BME280;41637;52.364;9.910;2022-10-16T07:38:42;100633.74;;;15.08;86.34
55733;BME280;41637;52.364;9.910;2022-10-16T07:41:11;100631.76;;;15.10;86.30
55733;BME280;41637;52.364;9.910;2022-10-16T07:43:39;100642.16;;;15.12;86.05
55733;BME280;41637;52.364;9.910;2022-10-16T07:46:06;100639.03;;;15.22;85.79
55733;BME280;41637;52.364;9.910;2022-10-16T07:48:34;100637.95;;;15.38;85.51
55733;BME280;41637;52.364;9.910;2022-10-16T07:51:03;100647.14;;;15.51;84.51
55733;BME280;41637;52.364;9.910;2022-10-16T07:53:30;100655.18;;;15.60;84.19
55733;BME280;41637;52.364;9.910;2022-10-16T07:56:04;100661.29;;;15.67;84.12
55733;BME280;41637;52.364;9.910;2022-10-16T07:58:33;100662.16;;;15.71;83.68
55733;BME280;41637;52.364;9.910;2022-10-16T08:01:04;100662.48;;;15.73;83.59
55733;BME280;41637;52.364;9.910;2022-10-16T08:03:31;100669.38;;;15.75;83.34
55733;BME280;41637;52.364;9.910;2022-10-16T08:05:58;100670.21;;;15.82;83.19
55733;BME280;41637;52.364;9.910;2022-10-16T08:08:25;100663.88;;;15.95;82.66
55733;BME280;41637;52.364;9.910;2022-10-16T08:10:52;100672.02;;;16.07;81.86
55733;BME280;41637;52.364;9.910;2022-10-16T08:13:19;100678.77;;;16.22;80.95
55733;BME280;41637;52.364;9.910;2022-10-16T08:15:46;100681.98;;;16.31;79.51
55733;BME280;41637;52.364;9.910;2022-10-16T08:18:14;100685.98;;;16.46;79.05
55733;BME280;41637;52.364;9.910;2022-10-16T08:20:42;100693.49;;;16.60;78.22
55733;BME280;41637;52.364;9.910;2022-10-16T08:23:11;100702.30;;;16.73;77.57
55733;BME280;41637;52.364;9.910;2022-10-16T08:25:38;100699.45;;;16.85;76.88
55733;BME280;41637;52.364;9.910;2022-10-16T08:28:06;100694.95;;;16.94;75.95
55733;BME280;41637;52.364;9.910;2022-10-16T08:30:34;100697.92;;;16.99;75.91
55733;BME280;41637;52.364;9.910;2022-10-16T08:33:01;100701.52;;;16.97;74.70
55733;BME280;41637;52.364;9.910;2022-10-16T08:35:28;100697.67;;;17.00;75.03
55733;BME280;41637;52.364;9.910;2022-10-16T08:37:54;100699.89;;;17.06;75.29
55733;BME280;41637;52.364;9.910;2022-10-16T08:40:29;100701.95;;;17.12;74.76
55733;BME280;41637;52.364;9.910;2022-10-16T08:46:14;100705.08;;;17.19;74.09
55733;BME280;41637;52.364;9.910;2022-10-16T08:48:50;100709.63;;;17.16;73.43
55733;BME280;41637;52.364;9.910;2022-10-16T08:51:24;100705.46;;;17.22;73.63
55733;BME280;41637;52.364;9.910;2022-10-16T08:54:02;100713.98;;;17.19;72.90
55733;BME280;41637;52.364;9.910;2022-10-16T08:56:31;100714.02;;;17.13;73.70
55733;BME280;41637;52.364;9.910;2022-10-16T08:58:59;100723.84;;;17.07;74.11
55733;BME280;41637;52.364;9.910;2022-10-16T09:01:41;100728.48;;;17.11;73.48
55733;BME280;41637;52.364;9.910;2022-10-16T09:12:26;100741.58;;;17.55;71.04
55733;BME280;41637;52.364;9.910;2022-10-16T09:20:51;100735.66;;;17.65;69.51
55733;BME280;41637;52.364;9.910;2022-10-16T09:23:25;100742.59;;;17.70;69.95
55733;BME280;41637;52.364;9.910;2022-10-16T09:25:54;100760.07;;;17.73;69.26
55733;BME280;41637;52.364;9.910;2022-10-16T09:28:21;100748.51;;;17.79;69.40
55733;BME280;41637;52.364;9.910;2022-10-16T09:30:48;100755.73;;;17.82;68.99
55733;BME280;41637;52.364;9.910;2022-10-16T09:33:18;100757.53;;;17.91;69.44
55733;BME280;41637;52.364;9.910;2022-10-16T09:35:49;100763.85;;;17.98;68.92
55733;BME280;41637;52.364;9.910;2022-10-16T09:38:26;100762.69;;;17.97;67.78
55733;BME280;41637;52.364;9.910;2022-10-16T09:40:53;100771.30;;;17.99;67.58
55733;BME280;41637;52.364;9.910;2022-10-16T09:46:02;100771.52;;;18.08;67.49
55733;BME280;41637;52.364;9.910;2022-10-16T09:48:37;100781.97;;;18.08;66.32
55733;BME280;41637;52.364;9.910;2022-10-16T09:51:13;100780.05;;;18.13;66.55
55733;BME280;41637;52.364;9.910;2022-10-16T09:53:44;100784.27;;;18.18;66.52
55733;BME280;41637;52.364;9.910;2022-10-16T09:56:20;100777.42;;;18.18;66.58
55733;BME280;41637;52.364;9.910;2022-10-16T09:58:55;100785.17;;;18.25;66.69
55733;BME280;41637;52.364;9.910;2022-10-16T10:01:27;100789.69;;;18.32;66.34
55733;BME280;41637;52.364;9.910;2022-10-16T10:03:57;100810.95;;;18.34;65.79
55733;BME280;41637;52.364;9.910;2022-10-16T10:06:33;100802.98;;;18.29;65.36
55733;BME280;41637;52.364;9.910;2022-10-16T10:09:04;100803.75;;;18.34;65.42
55733;BME280;41637;52.364;9.910;2022-10-16T10:11:48;100804.36;;;18.42;65.39
55733;BME280;41637;52.364;9.910;2022-10-16T10:14:24;100802.62;;;18.56;65.43
55733;BME280;41637;52.364;9.910;2022-10-16T10:17:00;100800.73;;;18.62;63.75
55733;BME280;41637;52.364;9.910;2022-10-16T10:19:27;100802.15;;;18.77;64.52
55733;BME280;41637;52.364;9.910;2022-10-16T10:21:58;100803.55;;;18.90;62.56
55733;BME280;41637;52.364;9.910;2022-10-16T10:24:24;100803.38;;;19.06;62.37
55733;BME280;41637;52.364;9.910;2022-10-16T10:26:56;100819.80;;;19.21;62.33
55733;BME280;41637;52.364;9.910;2022-10-16T10:32:39;100817.55;;;19.26;59.47
55733;BME280;41637;52.364;9.910;2022-10-16T10:35:22;100814.56;;;19.21;58.83
55733;BME280;41637;52.364;9.910;2022-10-16T10:38:06;100823.31;;;19.12;58.43
55733;BME280;41637;52.364;9.910;2022-10-16T10:40:55;100827.77;;;19.01;57.81
55733;BME280;41637;52.364;9.910;2022-10-16T10:43:39;100818.27;;;19.04;59.02
55733;BME280;41637;52.364;9.910;2022-10-16T10:46:14;100829.89;;;19.10;59.35
55733;BME280;41637;52.364;9.910;2022-10-16T10:48:53;100836.32;;;19.17;57.96
55733;BME280;41637;52.364;9.910;2022-10-16T10:54:31;100839.95;;;19.08;57.88
55733;BME280;41637;52.364;9.910;2022-10-16T10:57:10;100839.07;;;18.98;57.50
55733;BME280;41637;52.364;9.910;2022-10-16T11:02:48;100835.08;;;18.80;58.55
55733;BME280;41637;52.364;9.910;2022-10-16T11:05:26;100830.50;;;18.91;58.62
55733;BME280;41637;52.364;9.910;2022-10-16T11:08:00;100832.05;;;19.03;58.51
55733;BME280;41637;52.364;9.910;2022-10-16T11:10:44;100832.67;;;19.15;57.94
55733;BME280;41637;52.364;9.910;2022-10-16T11:15:57;100836.97;;;19.12;57.30
55733;BME280;41637;52.364;9.910;2022-10-16T11:18:33;100839.50;;;18.96;57.09
55733;BME280;41637;52.364;9.910;2022-10-16T11:21:09;100838.73;;;18.95;57.33
55733;BME280;41637;52.364;9.910;2022-10-16T11:23:44;100839.55;;;19.07;57.35
55733;BME280;41637;52.364;9.910;2022-10-16T11:26:19;100844.50;;;19.26;56.21
55733;BME280;41637;52.364;9.910;2022-10-16T11:28:53;100845.08;;;19.44;55.66
55733;BME280;41637;52.364;9.910;2022-10-16T11:34:17;100847.34;;;20.05;54.20
55733;BME280;41637;52.364;9.910;2022-10-16T11:37:05;100852.00;;;20.09;53.78
55733;BME280;41637;52.364;9.910;2022-10-16T11:39:32;100847.98;;;20.51;52.83
55733;BME280;41637;52.364;9.910;2022-10-16T11:47:40;100854.88;;;21.56;48.59
55733;BME280;41637;52.364;9.910;2022-10-16T11:50:31;100852.85;;;21.68;49.21
55733;BME280;41637;52.364;9.910;2022-10-16T11:55:50;100865.13;;;22.27;46.43
55733;BME280;41637;52.364;9.910;2022-10-16T12:01:16;100856.46;;;23.11;43.71
55733;BME280;41637;52.364;9.910;2022-10-16T12:04:04;100860.10;;;23.40;43.15
55733;BME280;41637;52.364;9.910;2022-10-16T12:07:10;100867.63;;;23.70;42.55
55733;BME280;41637;52.364;9.910;2022-10-16T12:09:40;100860.84;;;24.09;41.68
55733;BME280;41637;52.364;9.910;2022-10-16T12:17:48;100877.83;;;25.67;38.57
55733;BME280;41637;52.364;9.910;2022-10-16T12:20:19;100885.73;;;26.21;36.78
55733;BME280;41637;52.364;9.910;2022-10-16T12:22:51;100883.02;;;26.62;35.87
55733;BME280;41637;52.364;9.910;2022-10-16T12:25:32;100874.08;;;27.32;35.19
55733;BME280;41637;52.364;9.910;2022-10-16T12:28:07;100878.39;;;27.56;34.16
55733;BME280;41637;52.364;9.910;2022-10-16T12:30:58;100870.84;;;28.16;33.49
55733;BME280;41637;52.364;9.910;2022-10-16T12:33:36;100871.45;;;28.44;32.71
55733;BME280;41637;52.364;9.910;2022-10-16T12:36:14;100869.23;;;28.81;32.51
55733;BME280;41637;52.364;9.910;2022-10-16T12:38:51;100875.20;;;29.19;31.85
55733;BME280;41637;52.364;9.910;2022-10-16T12:41:28;100873.91;;;29.58;30.91
55733;BME280;41637;52.364;9.910;2022-10-16T12:43:56;100871.58;;;29.94;30.51
55733;BME280;41637;52.364;9.910;2022-10-16T12:46:34;100876.04;;;30.40;29.94
55733;BME280;41637;52.364;9.910;2022-10-16T12:51:39;100894.91;;;30.96;29.01
55733;BME280;41637;52.364;9.910;2022-10-16T12:54:14;100888.70;;;31.28;28.71
55733;BME280;41637;52.364;9.910;2022-10-16T13:08:13;100902.91;;;33.35;26.10
55733;BME280;41637;52.364;9.910;2022-10-16T13:18:47;100924.30;;;33.08;25.25
55733;BME280;41637;52.364;9.910;2022-10-16T13:21:41;100923.17;;;32.71;25.77
55733;BME280;41637;52.364;9.910;2022-10-16T13:24:33;100932.61;;;32.68;26.06
55733;BME280;41637;52.364;9.910;2022-10-16T13:29:53;100926.35;;;33.20;25.68
55733;BME280;41637;52.364;9.910;2022-10-16T13:32:21;100930.23;;;33.37;25.28
55733;BME280;41637;52.364;9.910;2022-10-16T13:34:48;100928.52;;;33.60;25.01
55733;BME280;41637;52.364;9.910;2022-10-16T13:37:20;100933.15;;;33.63;24.94
55733;BME280;41637;52.364;9.910;2022-10-16T13:39:47;100941.31;;;33.70;25.09
55733;BME280;41637;52.364;9.910;2022-10-16T13:42:28;100944.10;;;33.65;25.05
55733;BME280;41637;52.364;9.910;2022-10-16T13:44:55;100941.26;;;33.85;24.88
55733;BME280;41637;52.364;9.910;2022-10-16T13:47:24;100950.26;;;33.89;24.69
55733;BME280;41637;52.364;9.910;2022-10-16T13:50:02;100944.24;;;33.32;25.37
55733;BME280;41637;52.364;9.910;2022-10-16T13:52:29;100941.17;;;33.30;25.35
55733;BME280;41637;52.364;9.910;2022-10-16T13:54:56;100943.30;;;33.24;25.34
55733;BME280;41637;52.364;9.910;2022-10-16T13:57:27;100946.33;;;33.52;25.11
55733;BME280;41637;52.364;9.910;2022-10-16T13:59:54;100947.95;;;33.44;24.90
55733;BME280;41637;52.364;9.910;2022-10-16T14:02:30;100952.07;;;33.21;24.82
55733;BME280;41637;52.364;9.910;2022-10-16T14:04:58;100956.06;;;32.88;25.35
55733;BME280;41637;52.364;9.910;2022-10-16T14:07:30;100955.98;;;32.37;25.51
55733;BME280;41637;52.364;9.910;2022-10-16T14:10:03;100963.03;;;31.95;26.46
55733;BME280;41637;52.364;9.910;2022-10-16T14:12:30;100961.41;;;31.76;26.71
55733;BME280;41637;52.364;9.910;2022-10-16T14:14:58;100961.14;;;31.62;27.01
55733;BME280;41637;52.364;9.910;2022-10-16T14:17:28;100965.01;;;31.62;26.89
55733;BME280;41637;52.364;9.910;2022-10-16T14:20:03;100972.75;;;31.25;27.00
55733;BME280;41637;52.364;9.910;2022-10-16T14:22:40;100976.70;;;30.20;28.44
55733;BME280;41637;52.364;9.910;2022-10-16T14:25:33;100977.73;;;29.10;29.89
55733;BME280;41637;52.364;9.910;2022-10-16T14:28:14;100980.05;;;29.33;30.13
55733;BME280;41637;52.364;9.910;2022-10-16T14:30:58;100980.40;;;28.76;30.80
55733;BME280;41637;52.364;9.910;2022-10-16T14:38:35;100989.05;;;28.54;31.21